sensor_id;sensor_type;location;lat;lon;timestamp;P1;durP1;ratioP1;P2;durP2;ratioP2
45236;SDS011;30973;51.442;3.580;2023-05-21T00:00:24;10.27;;;5.90;;
45236;SDS011;30973;51.442;3.580;2023-05-21T00:02:51;8.48;;;5.50;;
45236;SDS011;30973;51.442;3.580;2023-05-21T00:05:18;10.00;;;5.20;;
45236;SDS011;30973;51.442;3.580;2023-05-21T00:07:46;7.82;;;5.40;;
45236;SDS011;30973;51.442;3.580;2023-05-21T00:10:13;10.45;;;5.78;;
45236;SDS011;30973;51.442;3.580;2023-05-21T00:12:40;11.68;;;5.57;;
45236;SDS011;30973;51.442;3.580;2023-05-21T00:15:07;8.85;;;5.55;;
45236;SDS011;30973;51.442;3.580;2023-05-21T00:17:34;9.55;;;5.53;;
45236;SDS011;30973;51.442;3.580;2023-05-21T00:20:03;12.30;;;5.78;;
45236;SDS011;30973;51.442;3.580;2023-05-21T00:22:32;9.27;;;5.85;;
45236;SDS011;30973;51.442;3.580;2023-05-21T00:24:59;8.73;;;6.60;;
45236;SDS011;30973;51.442;3.580;2023-05-21T00:27:28;8.55;;;5.75;;
45236;SDS011;30973;51.442;3.580;2023-05-21T00:29:55;9.40;;;6.10;;
45236;SDS011;30973;51.442;3.580;2023-05-21T00:32:22;8.88;;;5.30;;
45236;SDS011;30973;51.442;3.580;2023-05-21T00:34:49;10.65;;;5.55;;
45236;SDS011;30973;51.442;3.580;2023-05-21T00:37:15;8.23;;;6.03;;
45236;SDS011;30973;51.442;3.580;2023-05-21T00:39:42;10.15;;;5.20;;
45236;SDS011;30973;51.442;3.580;2023-05-21T00:42:09;8.85;;;5.70;;
45236;SDS011;30973;51.442;3.580;2023-05-21T00:44:45;8.65;;;5.18;;
45236;SDS011;30973;51.442;3.580;2023-05-21T00:47:12;9.20;;;5.45;;
45236;SDS011;30973;51.442;3.580;2023-05-21T00:49:39;7.57;;;5.43;;
45236;SDS011;30973;51.442;3.580;2023-05-21T00:52:06;9.80;;;5.72;;
45236;SDS011;30973;51.442;3.580;2023-05-21T00:54:33;9.25;;;5.82;;
45236;SDS011;30973;51.442;3.580;2023-05-21T00:57:00;8.73;;;5.45;;
45236;SDS011;30973;51.442;3.580;2023-05-21T00:59:29;9.48;;;6.10;;
45236;SDS011;30973;51.442;3.580;2023-05-21T01:01:56;7.47;;;5.40;;
45236;SDS011;30973;51.442;3.580;2023-05-21T01:04:30;9.02;;;5.13;;
45236;SDS011;30973;51.442;3.580;2023-05-21T01:06:58;10.90;;;5.88;;
45236;SDS011;30973;51.442;3.580;2023-05-21T01:09:25;9.38;;;5.70;;
45236;SDS011;30973;51.442;3.580;2023-05-21T01:11:52;8.43;;;5.22;;
45236;SDS011;30973;51.442;3.580;2023-05-21T01:14:19;9.38;;;5.10;;
45236;SDS011;30973;51.442;3.580;2023-05-21T01:16:48;10.43;;;6.15;;
45236;SDS011;30973;51.442;3.580;2023-05-21T01:19:16;7.45;;;5.38;;
45236;SDS011;30973;51.442;3.580;2023-05-21T01:21:48;8.93;;;5.53;;
45236;SDS011;30973;51.442;3.580;2023-05-21T01:24:15;7.47;;;5.40;;
45236;SDS011;30973;51.442;3.580;2023-05-21T01:26:42;7.38;;;5.65;;
45236;SDS011;30973;51.442;3.580;2023-05-21T01:29:09;9.75;;;6.00;;
45236;SDS011;30973;51.442;3.580;2023-05-21T01:31:49;9.48;;;5.82;;
45236;SDS011;30973;51.442;3.580;2023-05-21T01:34:19;8.18;;;5.40;;
45236;SDS011;30973;51.442;3.580;2023-05-21T01:36:56;8.63;;;4.95;;
45236;SDS011;30973;51.442;3.580;2023-05-21T01:39:32;9.27;;;6.18;;
45236;SDS011;30973;51.442;3.580;2023-05-21T01:42:01;9.23;;;6.00;;
45236;SDS011;30973;51.442;3.580;2023-05-21T01:44:29;7.13;;;5.43;;
45236;SDS011;30973;51.442;3.580;2023-05-21T01:46:56;8.02;;;5.15;;
45236;SDS011;30973;51.442;3.580;2023-05-21T01:49:26;8.18;;;6.03;;
45236;SDS011;30973;51.442;3.580;2023-05-21T01:51:54;10.55;;;6.88;;
45236;SDS011;30973;51.442;3.580;2023-05-21T01:54:22;8.90;;;5.53;;
45236;SDS011;30973;51.442;3.580;2023-05-21T01:56:49;12.60;;;6.95;;
45236;SDS011;30973;51.442;3.580;2023-05-21T01:59:16;9.25;;;6.40;;
45236;SDS011;30973;51.442;3.580;2023-05-21T02:01:43;10.18;;;7.00;;
45236;SDS011;30973;51.442;3.580;2023-05-21T02:04:10;12.35;;;7.05;;
45236;SDS011;30973;51.442;3.580;2023-05-21T02:06:37;9.48;;;7.03;;
45236;SDS011;30973;51.442;3.580;2023-05-21T02:09:05;12.57;;;7.75;;
45236;SDS011;30973;51.442;3.580;2023-05-21T02:11:31;9.80;;;7.03;;
45236;SDS011;30973;51.442;3.580;2023-05-21T02:13:58;9.00;;;7.28;;
45236;SDS011;30973;51.442;3.580;2023-05-21T02:16:25;10.52;;;7.22;;
45236;SDS011;30973;51.442;3.580;2023-05-21T02:18:52;11.88;;;7.40;;
45236;SDS011;30973;51.442;3.580;2023-05-21T02:21:23;16.67;;;7.35;;
45236;SDS011;30973;51.442;3.580;2023-05-21T02:23:50;12.73;;;8.00;;
45236;SDS011;30973;51.442;3.580;2023-05-21T02:26:17;12.77;;;7.50;;
45236;SDS011;30973;51.442;3.580;2023-05-21T02:28:44;11.82;;;6.85;;
45236;SDS011;30973;51.442;3.580;2023-05-21T02:31:11;9.95;;;7.40;;
45236;SDS011;30973;51.442;3.580;2023-05-21T02:33:40;12.02;;;8.00;;
45236;SDS011;30973;51.442;3.580;2023-05-21T02:36:07;14.13;;;7.75;;
45236;SDS011;30973;51.442;3.580;2023-05-21T02:38:39;13.38;;;8.02;;
45236;SDS011;30973;51.442;3.580;2023-05-21T02:41:12;10.98;;;7.30;;
45236;SDS011;30973;51.442;3.580;2023-05-21T02:43:39;10.70;;;7.07;;
45236;SDS011;30973;51.442;3.580;2023-05-21T02:46:07;10.95;;;6.78;;
45236;SDS011;30973;51.442;3.580;2023-05-21T02:48:34;14.13;;;6.95;;
45236;SDS011;30973;51.442;3.580;2023-05-21T02:51:02;11.35;;;5.97;;
45236;SDS011;30973;51.442;3.580;2023-05-21T02:53:30;10.20;;;6.80;;
45236;SDS011;30973;51.442;3.580;2023-05-21T02:55:57;11.35;;;6.88;;
45236;SDS011;30973;51.442;3.580;2023-05-21T02:58:23;10.18;;;6.80;;
45236;SDS011;30973;51.442;3.580;2023-05-21T03:00:51;11.95;;;6.90;;
45236;SDS011;30973;51.442;3.580;2023-05-21T03:03:19;12.65;;;7.18;;
45236;SDS011;30973;51.442;3.580;2023-05-21T03:05:47;11.68;;;6.38;;
45236;SDS011;30973;51.442;3.580;2023-05-21T03:08:17;12.25;;;7.18;;
45236;SDS011;30973;51.442;3.580;2023-05-21T03:10:44;13.38;;;7.43;;
45236;SDS011;30973;51.442;3.580;2023-05-21T03:13:11;10.18;;;6.72;;
45236;SDS011;30973;51.442;3.580;2023-05-21T03:15:38;13.73;;;7.55;;
45236;SDS011;30973;51.442;3.580;2023-05-21T03:18:09;12.85;;;7.82;;
45236;SDS011;30973;51.442;3.580;2023-05-21T03:20:37;14.98;;;7.85;;
45236;SDS011;30973;51.442;3.580;2023-05-21T03:23:09;13.35;;;7.35;;
45236;SDS011;30973;51.442;3.580;2023-05-21T03:25:41;10.90;;;7.80;;
45236;SDS011;30973;51.442;3.580;2023-05-21T03:28:09;17.60;;;7.55;;
45236;SDS011;30973;51.442;3.580;2023-05-21T03:30:42;11.25;;;7.80;;
45236;SDS011;30973;51.442;3.580;2023-05-21T03:33:31;10.13;;;7.43;;
45236;SDS011;30973;51.442;3.580;2023-05-21T03:36:02;12.98;;;7.35;;
45236;SDS011;30973;51.442;3.580;2023-05-21T03:38:32;13.35;;;7.25;;
45236;SDS011;30973;51.442;3.580;2023-05-21T03:41:02;13.60;;;8.05;;
45236;SDS011;30973;51.442;3.580;2023-05-21T03:43:29;11.68;;;7.68;;
45236;SDS011;30973;51.442;3.580;2023-05-21T03:45:56;13.52;;;7.50;;
45236;SDS011;30973;51.442;3.580;2023-05-21T03:48:43;11.95;;;7.00;;
45236;SDS011;30973;51.442;3.580;2023-05-21T03:51:13;13.45;;;8.02;;
45236;SDS011;30973;51.442;3.580;2023-05-21T03:53:41;11.10;;;7.70;;
45236;SDS011;30973;51.442;3.580;2023-05-21T03:56:08;11.95;;;7.97;;
45236;SDS011;30973;51.442;3.580;2023-05-21T03:58:35;13.30;;;7.95;;
45236;SDS011;30973;51.442;3.580;2023-05-21T04:01:06;11.20;;;7.90;;
45236;SDS011;30973;51.442;3.580;2023-05-21T04:03:35;15.52;;;7.78;;
45236;SDS011;30973;51.442;3.580;2023-05-21T04:06:06;11.82;;;7.80;;
45236;SDS011;30973;51.442;3.580;2023-05-21T04:08:37;13.27;;;8.00;;
45236;SDS011;30973;51.442;3.580;2023-05-21T04:11:04;14.55;;;7.93;;
45236;SDS011;30973;51.442;3.580;2023-05-21T04:13:31;10.23;;;8.02;;
45236;SDS011;30973;51.442;3.580;2023-05-21T04:15:57;12.02;;;8.10;;
45236;SDS011;30973;51.442;3.580;2023-05-21T04:18:26;16.80;;;8.80;;
45236;SDS011;30973;51.442;3.580;2023-05-21T04:20:53;14.98;;;8.73;;
45236;SDS011;30973;51.442;3.580;2023-05-21T04:23:21;13.05;;;8.63;;
45236;SDS011;30973;51.442;3.580;2023-05-21T04:25:50;15.40;;;8.60;;
45236;SDS011;30973;51.442;3.580;2023-05-21T04:28:17;13.73;;;7.93;;
45236;SDS011;30973;51.442;3.580;2023-05-21T04:30:46;10.23;;;7.70;;
45236;SDS011;30973;51.442;3.580;2023-05-21T04:33:14;11.25;;;7.78;;
45236;SDS011;30973;51.442;3.580;2023-05-21T04:35:44;10.80;;;7.40;;
45236;SDS011;30973;51.442;3.580;2023-05-21T04:38:12;16.95;;;7.55;;
45236;SDS011;30973;51.442;3.580;2023-05-21T04:40:48;13.15;;;7.53;;
45236;SDS011;30973;51.442;3.580;2023-05-21T04:43:19;13.35;;;7.03;;
45236;SDS011;30973;51.442;3.580;2023-05-21T04:45:52;11.48;;;7.15;;
45236;SDS011;30973;51.442;3.580;2023-05-21T04:48:22;15.00;;;7.53;;
45236;SDS011;30973;51.442;3.580;2023-05-21T04:50:50;14.70;;;7.60;;
45236;SDS011;30973;51.442;3.580;2023-05-21T04:53:19;12.25;;;6.78;;
45236;SDS011;30973;51.442;3.580;2023-05-21T04:55:46;9.65;;;6.45;;
45236;SDS011;30973;51.442;3.580;2023-05-21T04:58:13;12.43;;;7.93;;
45236;SDS011;30973;51.442;3.580;2023-05-21T05:00:44;15.50;;;7.65;;
45236;SDS011;30973;51.442;3.580;2023-05-21T05:03:13;14.68;;;7.50;;
45236;SDS011;30973;51.442;3.580;2023-05-21T05:05:42;12.13;;;7.40;;
45236;SDS011;30973;51.442;3.580;2023-05-21T05:08:11;14.45;;;7.68;;
45236;SDS011;30973;51.442;3.580;2023-05-21T05:10:41;14.90;;;8.25;;
45236;SDS011;30973;51.442;3.580;2023-05-21T05:13:07;12.30;;;7.32;;
45236;SDS011;30973;51.442;3.580;2023-05-21T05:15:34;9.95;;;7.18;;
45236;SDS011;30973;51.442;3.580;2023-05-21T05:18:02;10.23;;;6.97;;
45236;SDS011;30973;51.442;3.580;2023-05-21T05:20:29;12.52;;;7.15;;
45236;SDS011;30973;51.442;3.580;2023-05-21T05:22:56;12.25;;;7.30;;
45236;SDS011;30973;51.442;3.580;2023-05-21T05:25:23;17.70;;;8.18;;
45236;SDS011;30973;51.442;3.580;2023-05-21T05:27:50;16.45;;;8.07;;
45236;SDS011;30973;51.442;3.580;2023-05-21T05:30:17;13.63;;;8.40;;
45236;SDS011;30973;51.442;3.580;2023-05-21T05:32:44;12.52;;;7.15;;
45236;SDS011;30973;51.442;3.580;2023-05-21T05:35:12;15.82;;;8.10;;
45236;SDS011;30973;51.442;3.580;2023-05-21T05:37:39;11.02;;;6.88;;
45236;SDS011;30973;51.442;3.580;2023-05-21T05:40:06;11.80;;;7.28;;
45236;SDS011;30973;51.442;3.580;2023-05-21T05:42:33;14.10;;;7.88;;
45236;SDS011;30973;51.442;3.580;2023-05-21T05:45:07;9.15;;;6.30;;
45236;SDS011;30973;51.442;3.580;2023-05-21T05:47:35;13.57;;;7.53;;
45236;SDS011;30973;51.442;3.580;2023-05-21T05:50:02;11.45;;;6.82;;
45236;SDS011;30973;51.442;3.580;2023-05-21T05:52:43;11.88;;;6.85;;
45236;SDS011;30973;51.442;3.580;2023-05-21T05:55:10;12.43;;;7.13;;
45236;SDS011;30973;51.442;3.580;2023-05-21T05:57:41;13.10;;;7.07;;
45236;SDS011;30973;51.442;3.580;2023-05-21T06:00:13;10.55;;;6.15;;
45236;SDS011;30973;51.442;3.580;2023-05-21T06:02:45;13.90;;;7.18;;
45236;SDS011;30973;51.442;3.580;2023-05-21T06:05:13;11.93;;;6.60;;
45236;SDS011;30973;51.442;3.580;2023-05-21T06:07:40;15.73;;;6.78;;
45236;SDS011;30973;51.442;3.580;2023-05-21T06:10:07;12.60;;;7.30;;
45236;SDS011;30973;51.442;3.580;2023-05-21T06:12:34;11.57;;;6.75;;
45236;SDS011;30973;51.442;3.580;2023-05-21T06:15:01;13.85;;;7.00;;
45236;SDS011;30973;51.442;3.580;2023-05-21T06:17:32;12.45;;;6.75;;
45236;SDS011;30973;51.442;3.580;2023-05-21T06:20:16;9.90;;;6.57;;
45236;SDS011;30973;51.442;3.580;2023-05-21T06:23:01;17.40;;;7.45;;
45236;SDS011;30973;51.442;3.580;2023-05-21T06:28:20;10.93;;;6.95;;
45236;SDS011;30973;51.442;3.580;2023-05-21T06:30:47;11.68;;;5.97;;
45236;SDS011;30973;51.442;3.580;2023-05-21T06:33:15;15.75;;;6.75;;
45236;SDS011;30973;51.442;3.580;2023-05-21T06:35:43;12.85;;;6.18;;
45236;SDS011;30973;51.442;3.580;2023-05-21T06:38:11;10.40;;;5.68;;
45236;SDS011;30973;51.442;3.580;2023-05-21T06:40:38;9.13;;;6.03;;
45236;SDS011;30973;51.442;3.580;2023-05-21T06:43:12;10.23;;;6.05;;
45236;SDS011;30973;51.442;3.580;2023-05-21T06:46:03;11.32;;;6.05;;
45236;SDS011;30973;51.442;3.580;2023-05-21T06:48:39;7.97;;;5.25;;
45236;SDS011;30973;51.442;3.580;2023-05-21T06:51:05;8.73;;;5.60;;
45236;SDS011;30973;51.442;3.580;2023-05-21T06:53:32;12.07;;;7.18;;
45236;SDS011;30973;51.442;3.580;2023-05-21T06:55:59;8.93;;;5.60;;
45236;SDS011;30973;51.442;3.580;2023-05-21T07:01:34;9.60;;;5.28;;
45236;SDS011;30973;51.442;3.580;2023-05-21T07:04:01;9.65;;;5.03;;
45236;SDS011;30973;51.442;3.580;2023-05-21T07:06:29;9.00;;;5.43;;
45236;SDS011;30973;51.442;3.580;2023-05-21T07:08:56;13.50;;;5.38;;
45236;SDS011;30973;51.442;3.580;2023-05-21T07:11:37;6.90;;;5.00;;
45236;SDS011;30973;51.442;3.580;2023-05-21T07:14:07;9.20;;;5.57;;
45236;SDS011;30973;51.442;3.580;2023-05-21T07:16:35;9.57;;;4.97;;
45236;SDS011;30973;51.442;3.580;2023-05-21T07:19:02;8.38;;;5.10;;
45236;SDS011;30973;51.442;3.580;2023-05-21T07:21:29;7.20;;;5.15;;
45236;SDS011;30973;51.442;3.580;2023-05-21T07:23:56;10.10;;;5.10;;
45236;SDS011;30973;51.442;3.580;2023-05-21T07:26:26;7.55;;;4.60;;
45236;SDS011;30973;51.442;3.580;2023-05-21T07:28:53;10.50;;;4.65;;
45236;SDS011;30973;51.442;3.580;2023-05-21T07:31:21;7.47;;;4.60;;
45236;SDS011;30973;51.442;3.580;2023-05-21T07:33:50;8.57;;;4.82;;
45236;SDS011;30973;51.442;3.580;2023-05-21T07:36:21;7.35;;;4.40;;
45236;SDS011;30973;51.442;3.580;2023-05-21T07:38:48;11.10;;;5.03;;
45236;SDS011;30973;51.442;3.580;2023-05-21T07:41:15;8.32;;;4.55;;
45236;SDS011;30973;51.442;3.580;2023-05-21T07:43:45;6.68;;;4.25;;
45236;SDS011;30973;51.442;3.580;2023-05-21T07:46:13;6.40;;;4.55;;
45236;SDS011;30973;51.442;3.580;2023-05-21T07:48:41;10.32;;;5.05;;
45236;SDS011;30973;51.442;3.580;2023-05-21T07:51:09;13.02;;;4.90;;
45236;SDS011;30973;51.442;3.580;2023-05-21T07:53:36;6.25;;;4.20;;
45236;SDS011;30973;51.442;3.580;2023-05-21T07:56:07;8.80;;;4.50;;
45236;SDS011;30973;51.442;3.580;2023-05-21T07:58:34;9.32;;;4.18;;
45236;SDS011;30973;51.442;3.580;2023-05-21T08:01:01;6.80;;;4.10;;
45236;SDS011;30973;51.442;3.580;2023-05-21T08:03:30;7.85;;;4.25;;
45236;SDS011;30973;51.442;3.580;2023-05-21T08:05:57;6.68;;;4.15;;
45236;SDS011;30973;51.442;3.580;2023-05-21T08:08:25;7.40;;;4.57;;
45236;SDS011;30973;51.442;3.580;2023-05-21T08:10:54;9.07;;;4.20;;
45236;SDS011;30973;51.442;3.580;2023-05-21T08:13:24;7.15;;;4.10;;
45236;SDS011;30973;51.442;3.580;2023-05-21T08:15:51;8.00;;;4.22;;
45236;SDS011;30973;51.442;3.580;2023-05-21T08:18:20;10.18;;;4.63;;
45236;SDS011;30973;51.442;3.580;2023-05-21T08:20:51;8.10;;;4.10;;
45236;SDS011;30973;51.442;3.580;2023-05-21T08:23:19;7.60;;;4.50;;
45236;SDS011;30973;51.442;3.580;2023-05-21T08:25:50;8.77;;;4.30;;
45236;SDS011;30973;51.442;3.580;2023-05-21T08:28:20;9.90;;;4.95;;
45236;SDS011;30973;51.442;3.580;2023-05-21T08:30:47;11.05;;;4.70;;
45236;SDS011;30973;51.442;3.580;2023-05-21T08:33:16;9.52;;;4.10;;
45236;SDS011;30973;51.442;3.580;2023-05-21T08:35:46;7.35;;;4.28;;
45236;SDS011;30973;51.442;3.580;2023-05-21T08:38:26;7.45;;;4.57;;
45236;SDS011;30973;51.442;3.580;2023-05-21T08:41:13;9.40;;;4.50;;
45236;SDS011;30973;51.442;3.580;2023-05-21T08:43:42;7.03;;;4.63;;
45236;SDS011;30973;51.442;3.580;2023-05-21T08:46:16;10.53;;;4.50;;
45236;SDS011;30973;51.442;3.580;2023-05-21T08:48:44;7.72;;;4.30;;
45236;SDS011;30973;51.442;3.580;2023-05-21T08:51:12;6.90;;;4.00;;
45236;SDS011;30973;51.442;3.580;2023-05-21T08:53:45;5.70;;;4.53;;
45236;SDS011;30973;51.442;3.580;2023-05-21T08:56:18;6.38;;;4.68;;
45236;SDS011;30973;51.442;3.580;2023-05-21T08:58:56;7.43;;;4.35;;
45236;SDS011;30973;51.442;3.580;2023-05-21T09:01:26;9.45;;;4.55;;
45236;SDS011;30973;51.442;3.580;2023-05-21T09:03:59;9.23;;;4.85;;
45236;SDS011;30973;51.442;3.580;2023-05-21T09:06:46;8.05;;;4.78;;
45236;SDS011;30973;51.442;3.580;2023-05-21T09:09:54;9.37;;;4.47;;
45236;SDS011;30973;51.442;3.580;2023-05-21T09:14:41;7.82;;;4.82;;
45236;SDS011;30973;51.442;3.580;2023-05-21T09:17:52;9.80;;;5.38;;
45236;SDS011;30973;51.442;3.580;2023-05-21T09:20:34;8.95;;;4.78;;
45236;SDS011;30973;51.442;3.580;2023-05-21T09:23:02;11.25;;;5.32;;
45236;SDS011;30973;51.442;3.580;2023-05-21T09:25:31;8.30;;;5.38;;
45236;SDS011;30973;51.442;3.580;2023-05-21T09:28:09;10.83;;;4.50;;
45236;SDS011;30973;51.442;3.580;2023-05-21T09:30:42;8.50;;;5.20;;
45236;SDS011;30973;51.442;3.580;2023-05-21T09:33:09;8.18;;;4.93;;
45236;SDS011;30973;51.442;3.580;2023-05-21T09:35:43;9.55;;;5.32;;
45236;SDS011;30973;51.442;3.580;2023-05-21T09:38:10;7.40;;;4.88;;
45236;SDS011;30973;51.442;3.580;2023-05-21T09:40:37;8.48;;;5.00;;
45236;SDS011;30973;51.442;3.580;2023-05-21T09:43:11;7.43;;;5.07;;
45236;SDS011;30973;51.442;3.580;2023-05-21T09:45:41;8.80;;;4.95;;
45236;SDS011;30973;51.442;3.580;2023-05-21T09:48:15;7.32;;;4.90;;
45236;SDS011;30973;51.442;3.580;2023-05-21T09:50:42;9.65;;;5.35;;
45236;SDS011;30973;51.442;3.580;2023-05-21T09:53:12;9.55;;;6.57;;
45236;SDS011;30973;51.442;3.580;2023-05-21T09:55:40;9.20;;;5.97;;
45236;SDS011;30973;51.442;3.580;2023-05-21T09:58:18;9.65;;;5.30;;
45236;SDS011;30973;51.442;3.580;2023-05-21T10:00:47;8.23;;;4.97;;
45236;SDS011;30973;51.442;3.580;2023-05-21T10:03:14;8.75;;;5.07;;
45236;SDS011;30973;51.442;3.580;2023-05-21T10:05:42;8.18;;;5.25;;
45236;SDS011;30973;51.442;3.580;2023-05-21T10:08:09;8.85;;;5.07;;
45236;SDS011;30973;51.442;3.580;2023-05-21T10:10:37;8.27;;;5.47;;
45236;SDS011;30973;51.442;3.580;2023-05-21T10:13:07;7.35;;;5.28;;
45236;SDS011;30973;51.442;3.580;2023-05-21T10:15:40;9.25;;;5.05;;
45236;SDS011;30973;51.442;3.580;2023-05-21T10:18:08;7.57;;;5.00;;
45236;SDS011;30973;51.442;3.580;2023-05-21T10:20:35;9.88;;;4.82;;
45236;SDS011;30973;51.442;3.580;2023-05-21T10:23:03;8.90;;;5.80;;
45236;SDS011;30973;51.442;3.580;2023-05-21T10:25:30;10.82;;;5.30;;
45236;SDS011;30973;51.442;3.580;2023-05-21T10:27:57;8.57;;;4.80;;
45236;SDS011;30973;51.442;3.580;2023-05-21T10:30:24;10.60;;;4.45;;
45236;SDS011;30973;51.442;3.580;2023-05-21T10:32:51;10.30;;;4.60;;
45236;SDS011;30973;51.442;3.580;2023-05-21T10:35:18;7.88;;;4.32;;
45236;SDS011;30973;51.442;3.580;2023-05-21T10:37:45;12.82;;;5.00;;
45236;SDS011;30973;51.442;3.580;2023-05-21T10:40:12;12.98;;;4.80;;
45236;SDS011;30973;51.442;3.580;2023-05-21T10:50:53;10.00;;;4.53;;
45236;SDS011;30973;51.442;3.580;2023-05-21T10:58:39;7.55;;;4.38;;
45236;SDS011;30973;51.442;3.580;2023-05-21T11:01:08;10.30;;;4.32;;
45236;SDS011;30973;51.442;3.580;2023-05-21T11:03:35;8.55;;;4.57;;
45236;SDS011;30973;51.442;3.580;2023-05-21T11:06:03;10.38;;;4.93;;
45236;SDS011;30973;51.442;3.580;2023-05-21T11:08:31;10.02;;;5.25;;
45236;SDS011;30973;51.442;3.580;2023-05-21T11:11:03;12.70;;;5.05;;
45236;SDS011;30973;51.442;3.580;2023-05-21T11:14:06;8.65;;;5.05;;
45236;SDS011;30973;51.442;3.580;2023-05-21T11:16:22;10.27;;;4.50;;
45236;SDS011;30973;51.442;3.580;2023-05-21T11:19:00;11.13;;;4.82;;
45236;SDS011;30973;51.442;3.580;2023-05-21T11:21:27;11.63;;;4.95;;
45236;SDS011;30973;51.442;3.580;2023-05-21T11:23:58;12.10;;;4.80;;
45236;SDS011;30973;51.442;3.580;2023-05-21T11:26:27;10.15;;;5.10;;
45236;SDS011;30973;51.442;3.580;2023-05-21T11:31:31;9.48;;;4.70;;
45236;SDS011;30973;51.442;3.580;2023-05-21T11:36:40;8.88;;;5.20;;
45236;SDS011;30973;51.442;3.580;2023-05-21T11:39:08;10.35;;;4.97;;
45236;SDS011;30973;51.442;3.580;2023-05-21T11:41:56;9.85;;;5.00;;
45236;SDS011;30973;51.442;3.580;2023-05-21T11:49:34;11.57;;;4.90;;
45236;SDS011;30973;51.442;3.580;2023-05-21T11:52:02;10.18;;;4.95;;
45236;SDS011;30973;51.442;3.580;2023-05-21T11:54:29;12.10;;;5.20;;
45236;SDS011;30973;51.442;3.580;2023-05-21T11:56:59;10.13;;;4.45;;
45236;SDS011;30973;51.442;3.580;2023-05-21T11:59:27;9.57;;;4.80;;
45236;SDS011;30973;51.442;3.580;2023-05-21T12:01:53;8.88;;;4.90;;
45236;SDS011;30973;51.442;3.580;2023-05-21T12:04:21;11.93;;;4.97;;
45236;SDS011;30973;51.442;3.580;2023-05-21T12:06:47;8.13;;;4.53;;
45236;SDS011;30973;51.442;3.580;2023-05-21T12:09:15;12.32;;;4.30;;
45236;SDS011;30973;51.442;3.580;2023-05-21T12:11:42;8.07;;;4.55;;
45236;SDS011;30973;51.442;3.580;2023-05-21T12:14:09;10.40;;;4.22;;
45236;SDS011;30973;51.442;3.580;2023-05-21T12:16:37;9.93;;;4.60;;
45236;SDS011;30973;51.442;3.580;2023-05-21T12:19:04;11.05;;;4.80;;
45236;SDS011;30973;51.442;3.580;2023-05-21T12:21:31;7.00;;;4.10;;
45236;SDS011;30973;51.442;3.580;2023-05-21T12:23:58;11.30;;;4.18;;
45236;SDS011;30973;51.442;3.580;2023-05-21T12:26:25;11.00;;;3.80;;
45236;SDS011;30973;51.442;3.580;2023-05-21T12:28:55;10.73;;;4.30;;
45236;SDS011;30973;51.442;3.580;2023-05-21T12:31:22;145.82;;;36.90;;
45236;SDS011;30973;51.442;3.580;2023-05-21T12:33:50;36.95;;;13.07;;
45236;SDS011;30973;51.442;3.580;2023-05-21T12:36:20;131.40;;;34.20;;
45236;SDS011;30973;51.442;3.580;2023-05-21T12:38:48;54.00;;;15.32;;
45236;SDS011;30973;51.442;3.580;2023-05-21T12:41:15;16.73;;;4.78;;
45236;SDS011;30973;51.442;3.580;2023-05-21T12:43:42;14.90;;;5.40;;
45236;SDS011;30973;51.442;3.580;2023-05-21T12:46:11;10.05;;;4.45;;
45236;SDS011;30973;51.442;3.580;2023-05-21T12:48:51;7.78;;;4.70;;
45236;SDS011;30973;51.442;3.580;2023-05-21T12:51:18;16.15;;;4.43;;
45236;SDS011;30973;51.442;3.580;2023-05-21T12:53:45;11.13;;;4.32;;
45236;SDS011;30973;51.442;3.580;2023-05-21T12:56:12;8.40;;;4.72;;
45236;SDS011;30973;51.442;3.580;2023-05-21T12:58:39;10.77;;;4.60;;
45236;SDS011;30973;51.442;3.580;2023-05-21T13:01:10;9.48;;;4.53;;
45236;SDS011;30973;51.442;3.580;2023-05-21T13:03:37;10.18;;;4.82;;
45236;SDS011;30973;51.442;3.580;2023-05-21T13:06:07;10.13;;;4.10;;
45236;SDS011;30973;51.442;3.580;2023-05-21T13:08:34;11.88;;;4.40;;
45236;SDS011;30973;51.442;3.580;2023-05-21T13:11:01;10.73;;;4.18;;
45236;SDS011;30973;51.442;3.580;2023-05-21T13:13:27;10.02;;;4.30;;
45236;SDS011;30973;51.442;3.580;2023-05-21T13:15:54;8.65;;;4.40;;
45236;SDS011;30973;51.442;3.580;2023-05-21T13:18:21;13.77;;;4.28;;
45236;SDS011;30973;51.442;3.580;2023-05-21T13:20:48;9.15;;;4.47;;
45236;SDS011;30973;51.442;3.580;2023-05-21T13:23:14;9.05;;;4.32;;
45236;SDS011;30973;51.442;3.580;2023-05-21T13:25:41;11.55;;;4.15;;
45236;SDS011;30973;51.442;3.580;2023-05-21T13:28:08;7.32;;;3.88;;
45236;SDS011;30973;51.442;3.580;2023-05-21T13:30:38;9.73;;;3.72;;
45236;SDS011;30973;51.442;3.580;2023-05-21T13:33:05;8.75;;;3.72;;
45236;SDS011;30973;51.442;3.580;2023-05-21T13:35:32;7.43;;;3.80;;
45236;SDS011;30973;51.442;3.580;2023-05-21T13:37:59;9.40;;;3.95;;
45236;SDS011;30973;51.442;3.580;2023-05-21T13:40:26;13.60;;;4.18;;
45236;SDS011;30973;51.442;3.580;2023-05-21T13:42:53;10.32;;;4.30;;
45236;SDS011;30973;51.442;3.580;2023-05-21T13:45:20;10.70;;;4.85;;
45236;SDS011;30973;51.442;3.580;2023-05-21T13:47:46;7.47;;;3.53;;
45236;SDS011;30973;51.442;3.580;2023-05-21T13:50:14;11.25;;;4.03;;
45236;SDS011;30973;51.442;3.580;2023-05-21T13:52:41;9.50;;;3.60;;
45236;SDS011;30973;51.442;3.580;2023-05-21T13:55:08;9.82;;;3.92;;
45236;SDS011;30973;51.442;3.580;2023-05-21T13:57:35;8.80;;;4.18;;
45236;SDS011;30973;51.442;3.580;2023-05-21T14:00:02;9.70;;;3.70;;
45236;SDS011;30973;51.442;3.580;2023-05-21T14:02:32;7.68;;;3.85;;
45236;SDS011;30973;51.442;3.580;2023-05-21T14:05:00;9.32;;;4.20;;
45236;SDS011;30973;51.442;3.580;2023-05-21T14:07:26;9.25;;;4.15;;
45236;SDS011;30973;51.442;3.580;2023-05-21T14:09:53;8.70;;;3.83;;
45236;SDS011;30973;51.442;3.580;2023-05-21T14:12:20;10.85;;;4.38;;
45236;SDS011;30973;51.442;3.580;2023-05-21T14:14:47;11.68;;;5.43;;
45236;SDS011;30973;51.442;3.580;2023-05-21T14:17:15;11.93;;;4.10;;
45236;SDS011;30973;51.442;3.580;2023-05-21T14:19:41;8.13;;;3.80;;
45236;SDS011;30973;51.442;3.580;2023-05-21T14:22:08;11.93;;;4.05;;
45236;SDS011;30973;51.442;3.580;2023-05-21T14:24:35;8.45;;;3.47;;
45236;SDS011;30973;51.442;3.580;2023-05-21T14:27:01;9.25;;;3.95;;
45236;SDS011;30973;51.442;3.580;2023-05-21T14:29:28;10.70;;;4.18;;
45236;SDS011;30973;51.442;3.580;2023-05-21T14:31:55;13.75;;;4.05;;
45236;SDS011;30973;51.442;3.580;2023-05-21T14:34:22;7.68;;;3.50;;
45236;SDS011;30973;51.442;3.580;2023-05-21T14:36:48;11.25;;;3.70;;
45236;SDS011;30973;51.442;3.580;2023-05-21T14:39:15;7.10;;;3.58;;
45236;SDS011;30973;51.442;3.580;2023-05-21T14:41:42;9.10;;;3.40;;
45236;SDS011;30973;51.442;3.580;2023-05-21T14:44:09;7.03;;;3.40;;
45236;SDS011;30973;51.442;3.580;2023-05-21T14:46:36;7.95;;;3.58;;
45236;SDS011;30973;51.442;3.580;2023-05-21T14:49:03;8.95;;;3.35;;
45236;SDS011;30973;51.442;3.580;2023-05-21T14:51:30;8.68;;;3.97;;
45236;SDS011;30973;51.442;3.580;2023-05-21T14:53:57;10.27;;;3.88;;
45236;SDS011;30973;51.442;3.580;2023-05-21T14:56:24;7.70;;;3.85;;
45236;SDS011;30973;51.442;3.580;2023-05-21T14:58:53;6.53;;;3.58;;
45236;SDS011;30973;51.442;3.580;2023-05-21T15:01:20;7.95;;;3.88;;
45236;SDS011;30973;51.442;3.580;2023-05-21T15:03:47;9.93;;;3.65;;
45236;SDS011;30973;51.442;3.580;2023-05-21T15:06:14;43.47;;;20.73;;
45236;SDS011;30973;51.442;3.580;2023-05-21T15:08:41;157.18;;;111.25;;
45236;SDS011;30973;51.442;3.580;2023-05-21T15:11:07;367.02;;;297.52;;
45236;SDS011;30973;51.442;3.580;2023-05-21T15:13:35;177.18;;;158.43;;
45236;SDS011;30973;51.442;3.580;2023-05-21T15:19:08;14.73;;;9.90;;
45236;SDS011;30973;51.442;3.580;2023-05-21T15:21:35;15.55;;;5.75;;
45236;SDS011;30973;51.442;3.580;2023-05-21T15:24:02;11.68;;;5.53;;
45236;SDS011;30973;51.442;3.580;2023-05-21T15:26:28;29.08;;;13.40;;